Terminal Aerodrome Forecast
Issued by NWS

Home | Current Version | Previous Version | Text Only | Print | Product List | Glossary On
Versions: 1 2 3 4 5 6 7 8 9 10 11 12 13 14 15 16
000
FTUS45 KRIW 280230 AAA
TAFWRL
TAF AMD
KWRL 280230Z 2803/2824 33018G28KT P6SM VCSH SCT025 BKN040
     FM280600 34012G18KT 2SM -SN OVC012
     FM281500 35012KT P6SM VCSH SCT008 BKN014
     FM282100 36008KT P6SM SCT025 BKN040=

USA.gov is the U.S. government's official web portal to all federal, state and local government web resources and services.